sensor_id;sensor_type;location;lat;lon;timestamp;temperature;humidity
15160;DHT22;7680;48.800;9.680;2023-07-13T00:02:03;19.20;99.90
15160;DHT22;7680;48.800;9.680;2023-07-13T00:07:07;19.10;99.90
15160;DHT22;7680;48.800;9.680;2023-07-13T00:12:24;19.00;99.90
15160;DHT22;7680;48.800;9.680;2023-07-13T00:17:30;19.00;99.90
15160;DHT22;7680;48.800;9.680;2023-07-13T00:22:33;18.90;99.90
15160;DHT22;7680;48.800;9.680;2023-07-13T00:27:36;18.80;99.90
15160;DHT22;7680;48.800;9.680;2023-07-13T00:32:41;18.70;99.90
15160;DHT22;7680;48.800;9.680;2023-07-13T00:37:44;18.80;99.90
15160;DHT22;7680;48.800;9.680;2023-07-13T00:42:48;18.80;99.90
15160;DHT22;7680;48.800;9.680;2023-07-13T00:47:52;18.90;99.90
15160;DHT22;7680;48.800;9.680;2023-07-13T00:52:56;18.90;99.90
15160;DHT22;7680;48.800;9.680;2023-07-13T00:58:00;18.80;99.90
15160;DHT22;7680;48.800;9.680;2023-07-13T01:03:07;18.80;99.90
15160;DHT22;7680;48.800;9.680;2023-07-13T01:08:11;18.60;99.90
15160;DHT22;7680;48.800;9.680;2023-07-13T01:13:14;18.50;99.90
15160;DHT22;7680;48.800;9.680;2023-07-13T01:18:21;18.50;99.90
15160;DHT22;7680;48.800;9.680;2023-07-13T01:23:28;18.50;99.90
15160;DHT22;7680;48.800;9.680;2023-07-13T01:28:32;18.40;99.90
15160;DHT22;7680;48.800;9.680;2023-07-13T01:33:40;18.40;99.90
15160;DHT22;7680;48.800;9.680;2023-07-13T01:38:45;18.30;99.90
15160;DHT22;7680;48.800;9.680;2023-07-13T01:43:48;18.20;99.90
15160;DHT22;7680;48.800;9.680;2023-07-13T01:48:51;18.20;99.90
15160;DHT22;7680;48.800;9.680;2023-07-13T01:53:56;18.10;99.90
15160;DHT22;7680;48.800;9.680;2023-07-13T01:58:59;18.00;99.90
15160;DHT22;7680;48.800;9.680;2023-07-13T02:04:02;17.90;99.90
15160;DHT22;7680;48.800;9.680;2023-07-13T02:09:07;17.80;99.90
15160;DHT22;7680;48.800;9.680;2023-07-13T02:14:10;17.50;99.90
15160;DHT22;7680;48.800;9.680;2023-07-13T02:19:13;17.60;99.90
15160;DHT22;7680;48.800;9.680;2023-07-13T02:24:17;17.50;99.90
15160;DHT22;7680;48.800;9.680;2023-07-13T02:29:22;17.40;99.90
15160;DHT22;7680;48.800;9.680;2023-07-13T02:34:25;17.30;99.90
15160;DHT22;7680;48.800;9.680;2023-07-13T02:39:31;17.20;99.90
15160;DHT22;7680;48.800;9.680;2023-07-13T02:44:35;17.30;99.90
15160;DHT22;7680;48.800;9.680;2023-07-13T02:49:38;17.30;99.90
15160;DHT22;7680;48.800;9.680;2023-07-13T02:54:43;17.30;99.90
15160;DHT22;7680;48.800;9.680;2023-07-13T02:59:46;17.40;99.90
15160;DHT22;7680;48.800;9.680;2023-07-13T03:04:49;17.20;99.90
15160;DHT22;7680;48.800;9.680;2023-07-13T03:09:55;17.10;99.90
15160;DHT22;7680;48.800;9.680;2023-07-13T03:14:58;17.00;99.90
15160;DHT22;7680;48.800;9.680;2023-07-13T03:20:02;16.90;99.90
15160;DHT22;7680;48.800;9.680;2023-07-13T03:25:07;16.80;99.90
15160;DHT22;7680;48.800;9.680;2023-07-13T03:30:12;16.70;99.90
15160;DHT22;7680;48.800;9.680;2023-07-13T03:35:15;16.60;99.90
15160;DHT22;7680;48.800;9.680;2023-07-13T03:40:20;16.50;99.90
15160;DHT22;7680;48.800;9.680;2023-07-13T03:45:24;16.50;99.90
15160;DHT22;7680;48.800;9.680;2023-07-13T03:50:27;16.60;99.90
15160;DHT22;7680;48.800;9.680;2023-07-13T03:55:31;16.50;99.90
15160;DHT22;7680;48.800;9.680;2023-07-13T04:00:34;16.60;99.90
15160;DHT22;7680;48.800;9.680;2023-07-13T04:05:38;16.70;99.90
15160;DHT22;7680;48.800;9.680;2023-07-13T04:10:43;16.70;99.90
15160;DHT22;7680;48.800;9.680;2023-07-13T04:15:47;16.60;99.90
15160;DHT22;7680;48.800;9.680;2023-07-13T04:20:50;16.60;99.90
15160;DHT22;7680;48.800;9.680;2023-07-13T04:25:55;16.60;99.90
15160;DHT22;7680;48.800;9.680;2023-07-13T04:30:58;16.60;99.90
15160;DHT22;7680;48.800;9.680;2023-07-13T04:36:01;16.70;99.90
15160;DHT22;7680;48.800;9.680;2023-07-13T04:41:08;16.80;99.90
15160;DHT22;7680;48.800;9.680;2023-07-13T04:46:14;16.90;99.90
15160;DHT22;7680;48.800;9.680;2023-07-13T04:51:19;17.00;99.90
15160;DHT22;7680;48.800;9.680;2023-07-13T04:56:24;17.00;99.90
15160;DHT22;7680;48.800;9.680;2023-07-13T05:01:27;17.20;99.90
15160;DHT22;7680;48.800;9.680;2023-07-13T05:06:31;17.30;99.90
15160;DHT22;7680;48.800;9.680;2023-07-13T05:11:35;17.50;99.90
15160;DHT22;7680;48.800;9.680;2023-07-13T05:16:39;17.50;99.90
15160;DHT22;7680;48.800;9.680;2023-07-13T05:21:42;17.40;99.90
15160;DHT22;7680;48.800;9.680;2023-07-13T05:26:46;17.40;99.90
15160;DHT22;7680;48.800;9.680;2023-07-13T05:31:50;17.30;99.90
15160;DHT22;7680;48.800;9.680;2023-07-13T05:36:53;17.30;99.90
15160;DHT22;7680;48.800;9.680;2023-07-13T05:41:57;17.40;99.90
15160;DHT22;7680;48.800;9.680;2023-07-13T05:47:01;17.60;99.90
15160;DHT22;7680;48.800;9.680;2023-07-13T05:52:05;17.70;99.90
15160;DHT22;7680;48.800;9.680;2023-07-13T05:57:10;18.00;99.90
15160;DHT22;7680;48.800;9.680;2023-07-13T06:02:13;18.20;99.90
15160;DHT22;7680;48.800;9.680;2023-07-13T06:07:17;18.70;99.90
15160;DHT22;7680;48.800;9.680;2023-07-13T06:12:22;18.90;99.90
15160;DHT22;7680;48.800;9.680;2023-07-13T06:17:25;18.90;99.90
15160;DHT22;7680;48.800;9.680;2023-07-13T06:22:29;19.10;99.90
15160;DHT22;7680;48.800;9.680;2023-07-13T06:27:34;19.10;99.90
15160;DHT22;7680;48.800;9.680;2023-07-13T06:32:37;19.20;99.90
15160;DHT22;7680;48.800;9.680;2023-07-13T06:37:42;19.60;99.90
15160;DHT22;7680;48.800;9.680;2023-07-13T06:42:47;20.50;99.90
15160;DHT22;7680;48.800;9.680;2023-07-13T06:47:50;21.80;99.90
15160;DHT22;7680;48.800;9.680;2023-07-13T06:52:53;23.00;99.90
15160;DHT22;7680;48.800;9.680;2023-07-13T06:57:57;24.00;96.40
15160;DHT22;7680;48.800;9.680;2023-07-13T07:03:01;23.50;95.70
15160;DHT22;7680;48.800;9.680;2023-07-13T07:08:04;23.40;95.20
15160;DHT22;7680;48.800;9.680;2023-07-13T07:13:09;23.50;94.10
15160;DHT22;7680;48.800;9.680;2023-07-13T07:18:12;23.00;94.40
15160;DHT22;7680;48.800;9.680;2023-07-13T07:23:15;22.90;94.70
15160;DHT22;7680;48.800;9.680;2023-07-13T07:28:20;24.50;92.40
15160;DHT22;7680;48.800;9.680;2023-07-13T07:33:27;25.40;90.60
15160;DHT22;7680;48.800;9.680;2023-07-13T07:38:30;25.80;88.40
15160;DHT22;7680;48.800;9.680;2023-07-13T07:43:34;25.80;83.00
15160;DHT22;7680;48.800;9.680;2023-07-13T07:48:38;25.60;82.90
15160;DHT22;7680;48.800;9.680;2023-07-13T07:53:41;25.90;83.50
15160;DHT22;7680;48.800;9.680;2023-07-13T07:58:45;26.30;81.20
15160;DHT22;7680;48.800;9.680;2023-07-13T08:03:51;26.80;79.10
15160;DHT22;7680;48.800;9.680;2023-07-13T08:08:57;26.90;75.80
15160;DHT22;7680;48.800;9.680;2023-07-13T08:14:02;27.10;75.50
15160;DHT22;7680;48.800;9.680;2023-07-13T08:19:05;27.60;73.00
15160;DHT22;7680;48.800;9.680;2023-07-13T08:24:08;27.90;75.00
15160;DHT22;7680;48.800;9.680;2023-07-13T08:29:13;28.00;71.40
15160;DHT22;7680;48.800;9.680;2023-07-13T08:34:16;27.70;70.60
15160;DHT22;7680;48.800;9.680;2023-07-13T08:39:19;27.90;70.50
15160;DHT22;7680;48.800;9.680;2023-07-13T08:44:40;28.40;70.50
15160;DHT22;7680;48.800;9.680;2023-07-13T08:49:48;28.30;68.90
15160;DHT22;7680;48.800;9.680;2023-07-13T08:54:53;28.50;64.30
15160;DHT22;7680;48.800;9.680;2023-07-13T08:59:59;28.70;65.10
15160;DHT22;7680;48.800;9.680;2023-07-13T09:05:08;28.80;63.30
15160;DHT22;7680;48.800;9.680;2023-07-13T09:10:17;28.20;64.00
15160;DHT22;7680;48.800;9.680;2023-07-13T09:15:29;28.20;63.00
15160;DHT22;7680;48.800;9.680;2023-07-13T09:20:36;28.70;61.60
15160;DHT22;7680;48.800;9.680;2023-07-13T09:25:42;27.90;63.30
15160;DHT22;7680;48.800;9.680;2023-07-13T09:30:56;28.40;61.40
15160;DHT22;7680;48.800;9.680;2023-07-13T09:36:05;28.20;62.90
15160;DHT22;7680;48.800;9.680;2023-07-13T09:41:26;28.10;59.90
15160;DHT22;7680;48.800;9.680;2023-07-13T09:46:35;28.50;61.40
15160;DHT22;7680;48.800;9.680;2023-07-13T09:51:40;28.20;59.90
15160;DHT22;7680;48.800;9.680;2023-07-13T09:56:45;28.90;58.60
15160;DHT22;7680;48.800;9.680;2023-07-13T10:01:49;28.90;59.90
15160;DHT22;7680;48.800;9.680;2023-07-13T10:12:40;29.00;58.30
15160;DHT22;7680;48.800;9.680;2023-07-13T10:17:45;28.90;58.10
15160;DHT22;7680;48.800;9.680;2023-07-13T10:22:52;28.30;59.20
15160;DHT22;7680;48.800;9.680;2023-07-13T10:28:02;28.40;58.70
15160;DHT22;7680;48.800;9.680;2023-07-13T10:33:11;27.90;58.50
15160;DHT22;7680;48.800;9.680;2023-07-13T10:38:18;28.60;59.20
15160;DHT22;7680;48.800;9.680;2023-07-13T10:43:27;28.60;60.80
15160;DHT22;7680;48.800;9.680;2023-07-13T10:48:34;28.70;58.90
15160;DHT22;7680;48.800;9.680;2023-07-13T10:53:39;28.90;58.30
15160;DHT22;7680;48.800;9.680;2023-07-13T10:58:43;28.80;58.30
15160;DHT22;7680;48.800;9.680;2023-07-13T11:03:50;28.30;58.10
15160;DHT22;7680;48.800;9.680;2023-07-13T11:09:17;27.80;58.80
15160;DHT22;7680;48.800;9.680;2023-07-13T11:14:30;27.30;60.50
15160;DHT22;7680;48.800;9.680;2023-07-13T11:19:40;27.90;59.30
15160;DHT22;7680;48.800;9.680;2023-07-13T11:24:56;28.00;58.80
15160;DHT22;7680;48.800;9.680;2023-07-13T11:30:19;28.10;59.30
15160;DHT22;7680;48.800;9.680;2023-07-13T11:35:27;28.00;59.20
15160;DHT22;7680;48.800;9.680;2023-07-13T11:40:32;27.90;60.00
15160;DHT22;7680;48.800;9.680;2023-07-13T11:45:35;28.00;59.00
15160;DHT22;7680;48.800;9.680;2023-07-13T11:50:57;27.80;59.20
15160;DHT22;7680;48.800;9.680;2023-07-13T11:56:02;27.60;59.90
15160;DHT22;7680;48.800;9.680;2023-07-13T12:01:06;28.00;58.70
15160;DHT22;7680;48.800;9.680;2023-07-13T12:06:24;27.80;59.00
15160;DHT22;7680;48.800;9.680;2023-07-13T12:11:30;27.80;59.80
15160;DHT22;7680;48.800;9.680;2023-07-13T12:16:43;27.70;59.10
15160;DHT22;7680;48.800;9.680;2023-07-13T12:21:48;27.60;59.90
15160;DHT22;7680;48.800;9.680;2023-07-13T12:26:54;27.50;59.20
15160;DHT22;7680;48.800;9.680;2023-07-13T12:31:58;27.60;58.80
15160;DHT22;7680;48.800;9.680;2023-07-13T12:37:08;27.30;59.80
15160;DHT22;7680;48.800;9.680;2023-07-13T12:42:19;27.40;59.00
15160;DHT22;7680;48.800;9.680;2023-07-13T12:47:25;28.00;59.70
15160;DHT22;7680;48.800;9.680;2023-07-13T12:52:33;27.80;60.10
15160;DHT22;7680;48.800;9.680;2023-07-13T12:57:48;27.90;60.00
15160;DHT22;7680;48.800;9.680;2023-07-13T13:02:54;28.10;58.50
15160;DHT22;7680;48.800;9.680;2023-07-13T13:08:17;27.40;59.70
15160;DHT22;7680;48.800;9.680;2023-07-13T13:13:21;27.10;60.20
15160;DHT22;7680;48.800;9.680;2023-07-13T13:18:24;27.20;60.20
15160;DHT22;7680;48.800;9.680;2023-07-13T13:23:29;27.60;60.40
15160;DHT22;7680;48.800;9.680;2023-07-13T13:28:33;27.90;60.30
15160;DHT22;7680;48.800;9.680;2023-07-13T13:33:36;27.40;59.70
15160;DHT22;7680;48.800;9.680;2023-07-13T13:38:43;27.50;60.90
15160;DHT22;7680;48.800;9.680;2023-07-13T13:43:46;27.70;59.40
15160;DHT22;7680;48.800;9.680;2023-07-13T13:48:49;27.40;58.30
15160;DHT22;7680;48.800;9.680;2023-07-13T13:53:54;27.20;59.80
15160;DHT22;7680;48.800;9.680;2023-07-13T13:58:58;27.20;60.00
15160;DHT22;7680;48.800;9.680;2023-07-13T14:04:02;27.20;60.30
15160;DHT22;7680;48.800;9.680;2023-07-13T14:09:09;27.30;60.10
15160;DHT22;7680;48.800;9.680;2023-07-13T14:14:18;27.10;59.10
15160;DHT22;7680;48.800;9.680;2023-07-13T14:19:23;27.00;60.00
15160;DHT22;7680;48.800;9.680;2023-07-13T14:24:28;26.90;59.00
15160;DHT22;7680;48.800;9.680;2023-07-13T14:29:31;26.70;59.00
15160;DHT22;7680;48.800;9.680;2023-07-13T14:34:35;27.10;58.30
15160;DHT22;7680;48.800;9.680;2023-07-13T14:39:44;27.20;58.60
15160;DHT22;7680;48.800;9.680;2023-07-13T14:44:49;27.40;57.30
15160;DHT22;7680;48.800;9.680;2023-07-13T14:49:53;27.20;58.50
15160;DHT22;7680;48.800;9.680;2023-07-13T14:54:57;26.90;58.30
15160;DHT22;7680;48.800;9.680;2023-07-13T15:00:01;26.90;58.30
15160;DHT22;7680;48.800;9.680;2023-07-13T15:05:13;26.90;57.90
15160;DHT22;7680;48.800;9.680;2023-07-13T15:10:21;27.10;58.00
15160;DHT22;7680;48.800;9.680;2023-07-13T15:15:27;26.80;57.90
15160;DHT22;7680;48.800;9.680;2023-07-13T15:20:32;26.80;58.00
15160;DHT22;7680;48.800;9.680;2023-07-13T15:25:38;27.10;57.80
15160;DHT22;7680;48.800;9.680;2023-07-13T15:30:43;26.80;58.40
15160;DHT22;7680;48.800;9.680;2023-07-13T15:35:47;26.80;58.60
15160;DHT22;7680;48.800;9.680;2023-07-13T15:40:54;27.00;58.30
15160;DHT22;7680;48.800;9.680;2023-07-13T15:45:58;26.90;58.20
15160;DHT22;7680;48.800;9.680;2023-07-13T15:51:03;26.90;58.70
15160;DHT22;7680;48.800;9.680;2023-07-13T15:56:27;27.00;58.20
15160;DHT22;7680;48.800;9.680;2023-07-13T16:01:32;27.00;57.80
15160;DHT22;7680;48.800;9.680;2023-07-13T16:06:37;26.90;57.80
15160;DHT22;7680;48.800;9.680;2023-07-13T16:11:45;27.20;58.10
15160;DHT22;7680;48.800;9.680;2023-07-13T16:16:48;27.40;57.50
15160;DHT22;7680;48.800;9.680;2023-07-13T16:21:52;27.20;57.70
15160;DHT22;7680;48.800;9.680;2023-07-13T16:26:57;26.90;58.80
15160;DHT22;7680;48.800;9.680;2023-07-13T16:32:05;26.50;59.60
15160;DHT22;7680;48.800;9.680;2023-07-13T16:37:15;26.20;60.30
15160;DHT22;7680;48.800;9.680;2023-07-13T16:42:21;26.30;59.90
15160;DHT22;7680;48.800;9.680;2023-07-13T16:47:24;26.40;59.50
15160;DHT22;7680;48.800;9.680;2023-07-13T16:52:28;26.60;59.30
15160;DHT22;7680;48.800;9.680;2023-07-13T16:57:32;26.50;59.50
15160;DHT22;7680;48.800;9.680;2023-07-13T17:02:37;26.50;59.70
15160;DHT22;7680;48.800;9.680;2023-07-13T17:07:41;26.10;61.00
15160;DHT22;7680;48.800;9.680;2023-07-13T17:12:49;25.60;60.90
15160;DHT22;7680;48.800;9.680;2023-07-13T17:17:53;25.50;60.60
15160;DHT22;7680;48.800;9.680;2023-07-13T17:23:11;25.30;61.90
15160;DHT22;7680;48.800;9.680;2023-07-13T17:28:19;25.10;61.20
15160;DHT22;7680;48.800;9.680;2023-07-13T17:33:28;25.10;62.40
15160;DHT22;7680;48.800;9.680;2023-07-13T17:38:36;24.90;62.20
15160;DHT22;7680;48.800;9.680;2023-07-13T17:43:44;24.70;63.30
15160;DHT22;7680;48.800;9.680;2023-07-13T17:48:49;24.70;62.60
15160;DHT22;7680;48.800;9.680;2023-07-13T17:53:53;24.60;63.40
15160;DHT22;7680;48.800;9.680;2023-07-13T17:58:58;24.40;63.80
15160;DHT22;7680;48.800;9.680;2023-07-13T18:04:02;24.30;64.00
15160;DHT22;7680;48.800;9.680;2023-07-13T18:09:14;24.20;64.60
15160;DHT22;7680;48.800;9.680;2023-07-13T18:14:20;24.10;65.00
15160;DHT22;7680;48.800;9.680;2023-07-13T18:19:28;23.90;65.80
15160;DHT22;7680;48.800;9.680;2023-07-13T18:24:33;23.80;65.90
15160;DHT22;7680;48.800;9.680;2023-07-13T18:29:37;23.70;66.10
15160;DHT22;7680;48.800;9.680;2023-07-13T18:34:41;23.60;66.30
15160;DHT22;7680;48.800;9.680;2023-07-13T18:39:45;23.50;67.10
15160;DHT22;7680;48.800;9.680;2023-07-13T18:44:50;23.40;68.20
15160;DHT22;7680;48.800;9.680;2023-07-13T18:49:54;23.30;69.30
15160;DHT22;7680;48.800;9.680;2023-07-13T18:55:00;23.10;69.50
15160;DHT22;7680;48.800;9.680;2023-07-13T19:00:06;23.00;71.70
15160;DHT22;7680;48.800;9.680;2023-07-13T19:05:17;22.90;72.10
15160;DHT22;7680;48.800;9.680;2023-07-13T19:10:27;22.70;72.80
15160;DHT22;7680;48.800;9.680;2023-07-13T19:15:33;22.50;74.50
15160;DHT22;7680;48.800;9.680;2023-07-13T19:20:38;22.40;75.50
15160;DHT22;7680;48.800;9.680;2023-07-13T19:25:42;22.20;74.50
15160;DHT22;7680;48.800;9.680;2023-07-13T19:30:46;22.00;75.70
15160;DHT22;7680;48.800;9.680;2023-07-13T19:35:49;21.80;79.60
15160;DHT22;7680;48.800;9.680;2023-07-13T19:40:53;21.70;81.90
15160;DHT22;7680;48.800;9.680;2023-07-13T19:45:58;21.60;82.10
15160;DHT22;7680;48.800;9.680;2023-07-13T19:51:02;21.60;84.60
15160;DHT22;7680;48.800;9.680;2023-07-13T19:56:08;21.40;84.60
15160;DHT22;7680;48.800;9.680;2023-07-13T20:01:13;21.20;86.20
15160;DHT22;7680;48.800;9.680;2023-07-13T20:06:28;21.10;85.50
15160;DHT22;7680;48.800;9.680;2023-07-13T20:11:34;20.90;87.40
15160;DHT22;7680;48.800;9.680;2023-07-13T20:16:40;20.70;87.70
15160;DHT22;7680;48.800;9.680;2023-07-13T20:21:43;20.60;90.00
15160;DHT22;7680;48.800;9.680;2023-07-13T20:26:47;20.40;89.10
15160;DHT22;7680;48.800;9.680;2023-07-13T20:31:51;20.30;90.10
15160;DHT22;7680;48.800;9.680;2023-07-13T20:36:55;20.20;90.00
15160;DHT22;7680;48.800;9.680;2023-07-13T20:41:59;20.10;90.30
15160;DHT22;7680;48.800;9.680;2023-07-13T20:47:04;20.10;90.90
15160;DHT22;7680;48.800;9.680;2023-07-13T20:52:10;19.90;92.10
15160;DHT22;7680;48.800;9.680;2023-07-13T20:57:14;19.80;92.00
15160;DHT22;7680;48.800;9.680;2023-07-13T21:02:30;19.80;93.50
15160;DHT22;7680;48.800;9.680;2023-07-13T21:07:34;19.60;92.80
15160;DHT22;7680;48.800;9.680;2023-07-13T21:12:39;19.40;93.70
15160;DHT22;7680;48.800;9.680;2023-07-13T21:17:44;19.30;94.60
15160;DHT22;7680;48.800;9.680;2023-07-13T21:22:48;19.20;93.50
15160;DHT22;7680;48.800;9.680;2023-07-13T21:27:54;19.10;95.20
15160;DHT22;7680;48.800;9.680;2023-07-13T21:32:59;19.00;95.30
15160;DHT22;7680;48.800;9.680;2023-07-13T21:38:02;18.80;96.60
15160;DHT22;7680;48.800;9.680;2023-07-13T21:43:09;18.80;96.80
15160;DHT22;7680;48.800;9.680;2023-07-13T21:48:14;18.70;96.70
15160;DHT22;7680;48.800;9.680;2023-07-13T21:53:22;18.60;96.10
15160;DHT22;7680;48.800;9.680;2023-07-13T21:58:27;18.40;96.30
15160;DHT22;7680;48.800;9.680;2023-07-13T22:03:36;18.40;97.20
15160;DHT22;7680;48.800;9.680;2023-07-13T22:08:40;18.30;96.80
15160;DHT22;7680;48.800;9.680;2023-07-13T22:13:43;18.20;97.30
15160;DHT22;7680;48.800;9.680;2023-07-13T22:18:50;18.10;98.10
15160;DHT22;7680;48.800;9.680;2023-07-13T22:23:57;18.00;98.20
15160;DHT22;7680;48.800;9.680;2023-07-13T22:29:05;18.00;97.90
15160;DHT22;7680;48.800;9.680;2023-07-13T22:34:16;17.90;98.80
15160;DHT22;7680;48.800;9.680;2023-07-13T22:39:23;18.10;98.70
15160;DHT22;7680;48.800;9.680;2023-07-13T22:44:28;18.10;98.50
15160;DHT22;7680;48.800;9.680;2023-07-13T22:49:33;18.00;99.00
15160;DHT22;7680;48.800;9.680;2023-07-13T22:54:37;17.70;98.80
15160;DHT22;7680;48.800;9.680;2023-07-13T22:59:42;17.70;99.50
15160;DHT22;7680;48.800;9.680;2023-07-13T23:04:46;17.70;99.50
15160;DHT22;7680;48.800;9.680;2023-07-13T23:09:52;17.50;99.90
15160;DHT22;7680;48.800;9.680;2023-07-13T23:15:10;17.60;99.90
15160;DHT22;7680;48.800;9.680;2023-07-13T23:20:21;17.50;99.90
15160;DHT22;7680;48.800;9.680;2023-07-13T23:25:27;17.40;99.90
15160;DHT22;7680;48.800;9.680;2023-07-13T23:30:34;17.40;99.90
15160;DHT22;7680;48.800;9.680;2023-07-13T23:35:40;17.20;99.90
15160;DHT22;7680;48.800;9.680;2023-07-13T23:40:43;17.10;99.90
15160;DHT22;7680;48.800;9.680;2023-07-13T23:45:46;17.10;99.90
15160;DHT22;7680;48.800;9.680;2023-07-13T23:50:51;17.10;99.90
15160;DHT22;7680;48.800;9.680;2023-07-13T23:55:54;17.10;99.90
